Clifton, New Jersey
Current Conditions -  °F | °C
As of 8:51 AM on Thursday 29 Jan 2015 (Local Time) from KTEB Reporting Station
Clear Clear  
Wind Chill: -10°   Ceiling: Unl
Heat Index: -7°   Visibility: 10mi
Dew Point: -18°   Wind: 5mph
Humidity: 42%   Direction: 340°NNW
Pressure: 30.34"   Gusts: NA
Location:  40.87°N, 74.16°W
Report Text: KTEB 291351Z 34004KT 10SM CLR M07/M18 A3034 RMK AO2 SLP273 T10671178
Loading
Personal Weather Stations






























Interactive Weather Map New forecast layout! Learn more

10-Day Weather Forecast

Advertisements
Track Severe Weather on mobile